sensor_id;sensor_type;location;lat;lon;timestamp;P1;durP1;ratioP1;P2;durP2;ratioP2
4345;SDS011;2186;49.866;7.986;2022-08-19T00:00:49;7.73;;;7.13;;
4345;SDS011;2186;49.866;7.986;2022-08-19T00:03:16;8.07;;;7.30;;
4345;SDS011;2186;49.866;7.986;2022-08-19T00:05:43;9.90;;;8.83;;
4345;SDS011;2186;49.866;7.986;2022-08-19T00:08:10;10.10;;;9.23;;
4345;SDS011;2186;49.866;7.986;2022-08-19T00:10:36;20.53;;;8.80;;
4345;SDS011;2186;49.866;7.986;2022-08-19T00:13:03;9.53;;;8.73;;
4345;SDS011;2186;49.866;7.986;2022-08-19T00:15:30;8.60;;;7.80;;
4345;SDS011;2186;49.866;7.986;2022-08-19T00:17:56;9.80;;;9.00;;
4345;SDS011;2186;49.866;7.986;2022-08-19T00:20:23;10.30;;;9.13;;
4345;SDS011;2186;49.866;7.986;2022-08-19T00:22:49;8.87;;;8.07;;
4345;SDS011;2186;49.866;7.986;2022-08-19T00:25:16;16.87;;;9.50;;
4345;SDS011;2186;49.866;7.986;2022-08-19T00:27:42;8.97;;;7.83;;
4345;SDS011;2186;49.866;7.986;2022-08-19T00:30:09;8.60;;;7.63;;
4345;SDS011;2186;49.866;7.986;2022-08-19T00:32:36;8.60;;;7.87;;
4345;SDS011;2186;49.866;7.986;2022-08-19T00:35:04;12.70;;;8.60;;
4345;SDS011;2186;49.866;7.986;2022-08-19T00:37:31;37.93;;;9.57;;
4345;SDS011;2186;49.866;7.986;2022-08-19T00:39:59;11.37;;;9.20;;
4345;SDS011;2186;49.866;7.986;2022-08-19T00:42:25;11.03;;;8.53;;
4345;SDS011;2186;49.866;7.986;2022-08-19T00:44:54;8.63;;;8.03;;
4345;SDS011;2186;49.866;7.986;2022-08-19T00:47:21;10.70;;;9.10;;
4345;SDS011;2186;49.866;7.986;2022-08-19T00:49:49;13.10;;;8.83;;
4345;SDS011;2186;49.866;7.986;2022-08-19T00:52:26;8.10;;;7.30;;
4345;SDS011;2186;49.866;7.986;2022-08-19T00:54:56;8.47;;;7.93;;
4345;SDS011;2186;49.866;7.986;2022-08-19T00:57:29;11.30;;;7.80;;
4345;SDS011;2186;49.866;7.986;2022-08-19T00:59:58;9.03;;;8.17;;
4345;SDS011;2186;49.866;7.986;2022-08-19T01:02:29;9.73;;;8.03;;
4345;SDS011;2186;49.866;7.986;2022-08-19T01:04:56;9.03;;;7.37;;
4345;SDS011;2186;49.866;7.986;2022-08-19T01:07:23;9.40;;;7.33;;
4345;SDS011;2186;49.866;7.986;2022-08-19T01:09:50;10.97;;;9.93;;
4345;SDS011;2186;49.866;7.986;2022-08-19T01:12:17;10.50;;;7.00;;
4345;SDS011;2186;49.866;7.986;2022-08-19T01:14:45;8.63;;;7.70;;
4345;SDS011;2186;49.866;7.986;2022-08-19T01:17:13;10.20;;;7.93;;
4345;SDS011;2186;49.866;7.986;2022-08-19T01:19:41;17.50;;;8.10;;
4345;SDS011;2186;49.866;7.986;2022-08-19T01:25:08;8.40;;;7.57;;
4345;SDS011;2186;49.866;7.986;2022-08-19T01:27:41;10.00;;;8.13;;
4345;SDS011;2186;49.866;7.986;2022-08-19T01:30:12;10.03;;;9.00;;
4345;SDS011;2186;49.866;7.986;2022-08-19T01:32:59;9.33;;;7.87;;
4345;SDS011;2186;49.866;7.986;2022-08-19T01:35:28;10.30;;;9.30;;
4345;SDS011;2186;49.866;7.986;2022-08-19T01:37:58;14.07;;;8.67;;
4345;SDS011;2186;49.866;7.986;2022-08-19T01:40:30;10.13;;;9.20;;
4345;SDS011;2186;49.866;7.986;2022-08-19T01:42:59;11.60;;;8.50;;
4345;SDS011;2186;49.866;7.986;2022-08-19T01:45:27;8.87;;;8.03;;
4345;SDS011;2186;49.866;7.986;2022-08-19T01:47:55;11.03;;;9.80;;
4345;SDS011;2186;49.866;7.986;2022-08-19T01:50:27;8.77;;;8.27;;
4345;SDS011;2186;49.866;7.986;2022-08-19T01:52:55;9.50;;;8.60;;
4345;SDS011;2186;49.866;7.986;2022-08-19T01:55:31;9.03;;;8.10;;
4345;SDS011;2186;49.866;7.986;2022-08-19T01:58:00;9.33;;;8.47;;
4345;SDS011;2186;49.866;7.986;2022-08-19T02:00:30;12.63;;;9.40;;
4345;SDS011;2186;49.866;7.986;2022-08-19T02:02:57;10.53;;;9.60;;
4345;SDS011;2186;49.866;7.986;2022-08-19T02:05:24;12.53;;;9.20;;
4345;SDS011;2186;49.866;7.986;2022-08-19T02:07:50;8.87;;;7.97;;
4345;SDS011;2186;49.866;7.986;2022-08-19T02:10:18;11.90;;;9.70;;
4345;SDS011;2186;49.866;7.986;2022-08-19T02:12:47;9.73;;;8.83;;
4345;SDS011;2186;49.866;7.986;2022-08-19T02:15:15;11.60;;;8.03;;
4345;SDS011;2186;49.866;7.986;2022-08-19T02:17:45;7.20;;;6.73;;
4345;SDS011;2186;49.866;7.986;2022-08-19T02:20:11;8.97;;;8.17;;
4345;SDS011;2186;49.866;7.986;2022-08-19T02:22:39;9.30;;;8.40;;
4345;SDS011;2186;49.866;7.986;2022-08-19T02:25:10;7.80;;;7.10;;
4345;SDS011;2186;49.866;7.986;2022-08-19T02:27:38;8.63;;;7.90;;
4345;SDS011;2186;49.866;7.986;2022-08-19T02:30:05;7.53;;;6.97;;
4345;SDS011;2186;49.866;7.986;2022-08-19T02:32:39;12.13;;;8.97;;
4345;SDS011;2186;49.866;7.986;2022-08-19T02:35:09;15.87;;;7.13;;
4345;SDS011;2186;49.866;7.986;2022-08-19T02:37:37;9.83;;;8.07;;
4345;SDS011;2186;49.866;7.986;2022-08-19T02:40:22;9.90;;;8.27;;
4345;SDS011;2186;49.866;7.986;2022-08-19T02:42:49;9.20;;;7.93;;
4345;SDS011;2186;49.866;7.986;2022-08-19T02:45:16;8.90;;;8.10;;
4345;SDS011;2186;49.866;7.986;2022-08-19T02:47:43;9.40;;;8.50;;
4345;SDS011;2186;49.866;7.986;2022-08-19T02:50:10;16.77;;;8.40;;
4345;SDS011;2186;49.866;7.986;2022-08-19T02:52:36;9.40;;;8.60;;
4345;SDS011;2186;49.866;7.986;2022-08-19T02:55:03;10.20;;;9.23;;
4345;SDS011;2186;49.866;7.986;2022-08-19T02:57:30;14.13;;;8.87;;
4345;SDS011;2186;49.866;7.986;2022-08-19T02:59:58;9.40;;;8.30;;
4345;SDS011;2186;49.866;7.986;2022-08-19T03:02:25;15.33;;;8.53;;
4345;SDS011;2186;49.866;7.986;2022-08-19T03:04:51;8.63;;;7.90;;
4345;SDS011;2186;49.866;7.986;2022-08-19T03:07:18;9.57;;;8.63;;
4345;SDS011;2186;49.866;7.986;2022-08-19T03:09:45;9.33;;;8.43;;
4345;SDS011;2186;49.866;7.986;2022-08-19T03:12:11;10.70;;;8.50;;
4345;SDS011;2186;49.866;7.986;2022-08-19T03:14:38;14.73;;;9.17;;
4345;SDS011;2186;49.866;7.986;2022-08-19T03:17:04;14.90;;;8.10;;
4345;SDS011;2186;49.866;7.986;2022-08-19T03:19:31;9.73;;;8.93;;
4345;SDS011;2186;49.866;7.986;2022-08-19T03:21:58;13.07;;;8.37;;
4345;SDS011;2186;49.866;7.986;2022-08-19T03:24:24;8.33;;;7.67;;
4345;SDS011;2186;49.866;7.986;2022-08-19T03:26:52;8.27;;;7.33;;
4345;SDS011;2186;49.866;7.986;2022-08-19T03:29:24;10.30;;;9.20;;
4345;SDS011;2186;49.866;7.986;2022-08-19T03:32:00;9.87;;;7.67;;
4345;SDS011;2186;49.866;7.986;2022-08-19T03:34:30;9.87;;;8.47;;
4345;SDS011;2186;49.866;7.986;2022-08-19T03:36:58;13.43;;;7.80;;
4345;SDS011;2186;49.866;7.986;2022-08-19T03:39:29;8.50;;;7.63;;
4345;SDS011;2186;49.866;7.986;2022-08-19T03:41:56;9.53;;;7.13;;
4345;SDS011;2186;49.866;7.986;2022-08-19T03:44:51;10.37;;;9.40;;
4345;SDS011;2186;49.866;7.986;2022-08-19T03:47:18;8.10;;;7.37;;
4345;SDS011;2186;49.866;7.986;2022-08-19T03:49:45;9.13;;;7.07;;
4345;SDS011;2186;49.866;7.986;2022-08-19T03:52:11;8.77;;;7.03;;
4345;SDS011;2186;49.866;7.986;2022-08-19T03:54:38;11.00;;;8.07;;
4345;SDS011;2186;49.866;7.986;2022-08-19T03:57:05;7.77;;;7.13;;
4345;SDS011;2186;49.866;7.986;2022-08-19T03:59:33;8.10;;;7.30;;
4345;SDS011;2186;49.866;7.986;2022-08-19T04:02:03;8.27;;;7.60;;
4345;SDS011;2186;49.866;7.986;2022-08-19T04:04:35;7.83;;;7.10;;
4345;SDS011;2186;49.866;7.986;2022-08-19T04:07:03;15.33;;;9.00;;
4345;SDS011;2186;49.866;7.986;2022-08-19T04:09:30;8.50;;;7.73;;
4345;SDS011;2186;49.866;7.986;2022-08-19T04:11:57;7.13;;;6.53;;
4345;SDS011;2186;49.866;7.986;2022-08-19T04:14:25;11.80;;;8.10;;
4345;SDS011;2186;49.866;7.986;2022-08-19T04:16:55;9.03;;;8.00;;
4345;SDS011;2186;49.866;7.986;2022-08-19T04:19:23;9.53;;;6.87;;
4345;SDS011;2186;49.866;7.986;2022-08-19T04:21:51;8.10;;;7.40;;
4345;SDS011;2186;49.866;7.986;2022-08-19T04:24:19;9.57;;;6.40;;
4345;SDS011;2186;49.866;7.986;2022-08-19T04:26:46;6.30;;;5.80;;
4345;SDS011;2186;49.866;7.986;2022-08-19T04:29:15;8.50;;;7.60;;
4345;SDS011;2186;49.866;7.986;2022-08-19T04:31:53;6.03;;;5.53;;
4345;SDS011;2186;49.866;7.986;2022-08-19T04:34:22;8.07;;;7.30;;
4345;SDS011;2186;49.866;7.986;2022-08-19T04:36:50;7.90;;;7.13;;
4345;SDS011;2186;49.866;7.986;2022-08-19T04:39:21;5.23;;;4.83;;
4345;SDS011;2186;49.866;7.986;2022-08-19T04:42:09;8.23;;;7.43;;
4345;SDS011;2186;49.866;7.986;2022-08-19T04:44:56;9.53;;;8.17;;
4345;SDS011;2186;49.866;7.986;2022-08-19T04:47:24;6.20;;;5.57;;
4345;SDS011;2186;49.866;7.986;2022-08-19T04:50:10;6.30;;;5.57;;
4345;SDS011;2186;49.866;7.986;2022-08-19T04:52:38;5.07;;;4.67;;
4345;SDS011;2186;49.866;7.986;2022-08-19T04:55:09;8.77;;;7.87;;
4345;SDS011;2186;49.866;7.986;2022-08-19T04:57:36;7.10;;;6.40;;
4345;SDS011;2186;49.866;7.986;2022-08-19T05:00:06;8.17;;;7.10;;
4345;SDS011;2186;49.866;7.986;2022-08-19T05:02:34;13.07;;;5.90;;
4345;SDS011;2186;49.866;7.986;2022-08-19T05:05:01;6.93;;;6.53;;
4345;SDS011;2186;49.866;7.986;2022-08-19T05:07:27;7.23;;;6.10;;
4345;SDS011;2186;49.866;7.986;2022-08-19T05:09:55;7.00;;;6.33;;
4345;SDS011;2186;49.866;7.986;2022-08-19T05:12:24;5.40;;;5.10;;
4345;SDS011;2186;49.866;7.986;2022-08-19T05:14:54;10.83;;;5.80;;
4345;SDS011;2186;49.866;7.986;2022-08-19T05:17:23;5.93;;;5.47;;
4345;SDS011;2186;49.866;7.986;2022-08-19T05:19:53;6.57;;;5.97;;
4345;SDS011;2186;49.866;7.986;2022-08-19T05:22:40;8.60;;;7.30;;
4345;SDS011;2186;49.866;7.986;2022-08-19T05:25:09;6.10;;;5.40;;
4345;SDS011;2186;49.866;7.986;2022-08-19T05:27:40;7.00;;;6.40;;
4345;SDS011;2186;49.866;7.986;2022-08-19T05:30:08;6.03;;;5.43;;
4345;SDS011;2186;49.866;7.986;2022-08-19T05:32:35;6.00;;;5.50;;
4345;SDS011;2186;49.866;7.986;2022-08-19T05:35:02;8.23;;;6.43;;
4345;SDS011;2186;49.866;7.986;2022-08-19T05:37:29;6.27;;;5.73;;
4345;SDS011;2186;49.866;7.986;2022-08-19T05:39:56;8.20;;;6.60;;
4345;SDS011;2186;49.866;7.986;2022-08-19T05:42:22;10.13;;;6.93;;
4345;SDS011;2186;49.866;7.986;2022-08-19T05:44:50;7.17;;;6.47;;
4345;SDS011;2186;49.866;7.986;2022-08-19T05:47:17;7.37;;;6.67;;
4345;SDS011;2186;49.866;7.986;2022-08-19T05:49:46;6.80;;;6.20;;
4345;SDS011;2186;49.866;7.986;2022-08-19T05:52:16;12.93;;;6.87;;
4345;SDS011;2186;49.866;7.986;2022-08-19T05:54:44;5.80;;;5.40;;
4345;SDS011;2186;49.866;7.986;2022-08-19T05:57:16;5.67;;;5.23;;
4345;SDS011;2186;49.866;7.986;2022-08-19T05:59:44;8.33;;;7.77;;
4345;SDS011;2186;49.866;7.986;2022-08-19T06:02:12;13.30;;;6.70;;
4345;SDS011;2186;49.866;7.986;2022-08-19T06:04:39;12.23;;;7.50;;
4345;SDS011;2186;49.866;7.986;2022-08-19T06:07:09;8.60;;;8.00;;
4345;SDS011;2186;49.866;7.986;2022-08-19T06:09:38;6.87;;;6.37;;
4345;SDS011;2186;49.866;7.986;2022-08-19T06:12:05;11.97;;;7.53;;
4345;SDS011;2186;49.866;7.986;2022-08-19T06:14:33;9.70;;;7.73;;
4345;SDS011;2186;49.866;7.986;2022-08-19T06:17:05;20.93;;;8.90;;
4345;SDS011;2186;49.866;7.986;2022-08-19T06:19:32;9.97;;;7.70;;
4345;SDS011;2186;49.866;7.986;2022-08-19T06:22:05;26.07;;;6.57;;
4345;SDS011;2186;49.866;7.986;2022-08-19T06:24:32;10.53;;;7.10;;
4345;SDS011;2186;49.866;7.986;2022-08-19T06:26:59;5.97;;;5.57;;
4345;SDS011;2186;49.866;7.986;2022-08-19T06:29:27;12.17;;;8.67;;
4345;SDS011;2186;49.866;7.986;2022-08-19T06:31:56;8.77;;;8.07;;
4345;SDS011;2186;49.866;7.986;2022-08-19T06:34:24;30.60;;;9.67;;
4345;SDS011;2186;49.866;7.986;2022-08-19T06:36:53;8.73;;;8.00;;
4345;SDS011;2186;49.866;7.986;2022-08-19T06:39:24;14.23;;;9.50;;
4345;SDS011;2186;49.866;7.986;2022-08-19T06:41:54;12.03;;;7.17;;
4345;SDS011;2186;49.866;7.986;2022-08-19T06:44:25;8.83;;;8.03;;
4345;SDS011;2186;49.866;7.986;2022-08-19T06:46:53;8.43;;;7.70;;
4345;SDS011;2186;49.866;7.986;2022-08-19T06:49:21;7.87;;;7.23;;
4345;SDS011;2186;49.866;7.986;2022-08-19T06:51:49;17.33;;;8.60;;
4345;SDS011;2186;49.866;7.986;2022-08-19T06:54:17;18.33;;;10.03;;
4345;SDS011;2186;49.866;7.986;2022-08-19T06:56:45;9.60;;;8.70;;
4345;SDS011;2186;49.866;7.986;2022-08-19T06:59:14;7.27;;;6.70;;
4345;SDS011;2186;49.866;7.986;2022-08-19T07:01:44;10.77;;;7.30;;
4345;SDS011;2186;49.866;7.986;2022-08-19T07:04:16;8.23;;;7.50;;
4345;SDS011;2186;49.866;7.986;2022-08-19T07:06:45;13.43;;;7.90;;
4345;SDS011;2186;49.866;7.986;2022-08-19T07:09:20;7.70;;;6.97;;
4345;SDS011;2186;49.866;7.986;2022-08-19T07:11:48;10.93;;;8.33;;
4345;SDS011;2186;49.866;7.986;2022-08-19T07:14:19;10.40;;;9.13;;
4345;SDS011;2186;49.866;7.986;2022-08-19T07:16:48;8.67;;;7.93;;
4345;SDS011;2186;49.866;7.986;2022-08-19T07:19:17;7.23;;;6.53;;
4345;SDS011;2186;49.866;7.986;2022-08-19T07:21:46;6.37;;;5.87;;
4345;SDS011;2186;49.866;7.986;2022-08-19T07:24:14;9.30;;;8.43;;
4345;SDS011;2186;49.866;7.986;2022-08-19T07:26:42;8.30;;;7.70;;
4345;SDS011;2186;49.866;7.986;2022-08-19T07:29:10;9.27;;;8.10;;
4345;SDS011;2186;49.866;7.986;2022-08-19T07:31:38;16.33;;;6.90;;
4345;SDS011;2186;49.866;7.986;2022-08-19T07:34:09;14.00;;;8.63;;
4345;SDS011;2186;49.866;7.986;2022-08-19T07:36:39;8.73;;;7.50;;
4345;SDS011;2186;49.866;7.986;2022-08-19T07:39:12;19.07;;;9.93;;
4345;SDS011;2186;49.866;7.986;2022-08-19T07:41:44;23.23;;;10.83;;
4345;SDS011;2186;49.866;7.986;2022-08-19T07:44:12;14.90;;;9.47;;
4345;SDS011;2186;49.866;7.986;2022-08-19T07:46:41;11.60;;;9.37;;
4345;SDS011;2186;49.866;7.986;2022-08-19T07:49:13;13.40;;;9.90;;
4345;SDS011;2186;49.866;7.986;2022-08-19T07:51:46;14.87;;;9.77;;
4345;SDS011;2186;49.866;7.986;2022-08-19T07:54:15;10.67;;;9.47;;
4345;SDS011;2186;49.866;7.986;2022-08-19T07:56:41;11.10;;;9.93;;
4345;SDS011;2186;49.866;7.986;2022-08-19T07:59:08;16.60;;;9.17;;
4345;SDS011;2186;49.866;7.986;2022-08-19T08:01:35;8.80;;;8.00;;
4345;SDS011;2186;49.866;7.986;2022-08-19T08:04:07;10.60;;;9.57;;
4345;SDS011;2186;49.866;7.986;2022-08-19T08:06:52;15.20;;;10.10;;
4345;SDS011;2186;49.866;7.986;2022-08-19T08:09:39;17.47;;;11.33;;
4345;SDS011;2186;49.866;7.986;2022-08-19T08:12:12;9.50;;;8.50;;
4345;SDS011;2186;49.866;7.986;2022-08-19T08:15:00;43.17;;;8.83;;
4345;SDS011;2186;49.866;7.986;2022-08-19T08:17:37;14.70;;;10.00;;
4345;SDS011;2186;49.866;7.986;2022-08-19T08:20:14;18.13;;;9.83;;
4345;SDS011;2186;49.866;7.986;2022-08-19T08:22:44;14.50;;;10.90;;
4345;SDS011;2186;49.866;7.986;2022-08-19T08:25:30;9.63;;;7.43;;
4345;SDS011;2186;49.866;7.986;2022-08-19T08:27:59;8.77;;;8.07;;
4345;SDS011;2186;49.866;7.986;2022-08-19T08:30:27;12.13;;;10.17;;
4345;SDS011;2186;49.866;7.986;2022-08-19T08:32:58;19.13;;;12.37;;
4345;SDS011;2186;49.866;7.986;2022-08-19T08:35:25;10.97;;;9.87;;
4345;SDS011;2186;49.866;7.986;2022-08-19T08:37:52;14.33;;;9.90;;
4345;SDS011;2186;49.866;7.986;2022-08-19T08:40:32;11.67;;;10.30;;
4345;SDS011;2186;49.866;7.986;2022-08-19T08:51:03;12.83;;;8.83;;
4345;SDS011;2186;49.866;7.986;2022-08-19T08:53:34;12.10;;;10.43;;
4345;SDS011;2186;49.866;7.986;2022-08-19T08:56:07;10.70;;;9.60;;
4345;SDS011;2186;49.866;7.986;2022-08-19T08:58:44;16.03;;;12.53;;
4345;SDS011;2186;49.866;7.986;2022-08-19T09:01:19;13.83;;;9.87;;
4345;SDS011;2186;49.866;7.986;2022-08-19T09:03:46;14.60;;;9.83;;
4345;SDS011;2186;49.866;7.986;2022-08-19T09:09:04;8.63;;;7.93;;
4345;SDS011;2186;49.866;7.986;2022-08-19T09:11:56;8.83;;;8.13;;
4345;SDS011;2186;49.866;7.986;2022-08-19T09:14:39;15.10;;;10.07;;
4345;SDS011;2186;49.866;7.986;2022-08-19T09:17:16;11.13;;;10.00;;
4345;SDS011;2186;49.866;7.986;2022-08-19T09:20:04;7.67;;;6.97;;
4345;SDS011;2186;49.866;7.986;2022-08-19T09:22:35;8.47;;;7.73;;
4345;SDS011;2186;49.866;7.986;2022-08-19T09:25:03;10.23;;;7.50;;
4345;SDS011;2186;49.866;7.986;2022-08-19T09:27:31;8.20;;;7.60;;
4345;SDS011;2186;49.866;7.986;2022-08-19T09:30:09;11.30;;;8.77;;
4345;SDS011;2186;49.866;7.986;2022-08-19T09:32:41;8.50;;;7.70;;
4345;SDS011;2186;49.866;7.986;2022-08-19T09:35:09;8.27;;;7.53;;
4345;SDS011;2186;49.866;7.986;2022-08-19T09:37:37;8.63;;;7.93;;
4345;SDS011;2186;49.866;7.986;2022-08-19T09:40:05;7.50;;;6.90;;
4345;SDS011;2186;49.866;7.986;2022-08-19T09:42:34;7.27;;;6.33;;
4345;SDS011;2186;49.866;7.986;2022-08-19T09:45:00;7.93;;;7.10;;
4345;SDS011;2186;49.866;7.986;2022-08-19T09:47:35;14.30;;;5.10;;
4345;SDS011;2186;49.866;7.986;2022-08-19T09:50:13;4.50;;;4.10;;
4345;SDS011;2186;49.866;7.986;2022-08-19T09:52:41;4.47;;;4.20;;
4345;SDS011;2186;49.866;7.986;2022-08-19T09:55:20;6.33;;;5.73;;
4345;SDS011;2186;49.866;7.986;2022-08-19T09:57:49;6.53;;;5.90;;
4345;SDS011;2186;49.866;7.986;2022-08-19T10:00:15;5.57;;;4.97;;
4345;SDS011;2186;49.866;7.986;2022-08-19T10:02:42;6.47;;;5.53;;
4345;SDS011;2186;49.866;7.986;2022-08-19T10:05:10;6.47;;;5.93;;
4345;SDS011;2186;49.866;7.986;2022-08-19T10:07:56;3.80;;;3.60;;
4345;SDS011;2186;49.866;7.986;2022-08-19T10:10:22;4.40;;;4.20;;
4345;SDS011;2186;49.866;7.986;2022-08-19T10:12:50;4.73;;;3.40;;
4345;SDS011;2186;49.866;7.986;2022-08-19T10:15:16;6.70;;;4.10;;
4345;SDS011;2186;49.866;7.986;2022-08-19T10:17:54;4.53;;;4.13;;
4345;SDS011;2186;49.866;7.986;2022-08-19T10:20:21;4.80;;;4.50;;
4345;SDS011;2186;49.866;7.986;2022-08-19T10:22:49;3.73;;;3.53;;
4345;SDS011;2186;49.866;7.986;2022-08-19T10:25:18;4.97;;;4.00;;
4345;SDS011;2186;49.866;7.986;2022-08-19T10:27:45;5.07;;;4.00;;
4345;SDS011;2186;49.866;7.986;2022-08-19T10:30:16;2.90;;;2.80;;
4345;SDS011;2186;49.866;7.986;2022-08-19T10:32:45;6.90;;;3.10;;
4345;SDS011;2186;49.866;7.986;2022-08-19T10:35:12;2.83;;;2.73;;
4345;SDS011;2186;49.866;7.986;2022-08-19T10:37:47;3.80;;;3.50;;
4345;SDS011;2186;49.866;7.986;2022-08-19T10:40:27;2.97;;;2.77;;
4345;SDS011;2186;49.866;7.986;2022-08-19T10:42:55;2.43;;;2.23;;
4345;SDS011;2186;49.866;7.986;2022-08-19T10:45:22;2.60;;;2.40;;
4345;SDS011;2186;49.866;7.986;2022-08-19T10:47:53;2.93;;;2.83;;
4345;SDS011;2186;49.866;7.986;2022-08-19T10:50:20;3.30;;;2.87;;
4345;SDS011;2186;49.866;7.986;2022-08-19T10:53:20;2.60;;;2.00;;
4345;SDS011;2186;49.866;7.986;2022-08-19T10:55:51;2.90;;;2.17;;
4345;SDS011;2186;49.866;7.986;2022-08-19T10:58:36;2.90;;;2.70;;
4345;SDS011;2186;49.866;7.986;2022-08-19T11:01:02;3.30;;;3.10;;
4345;SDS011;2186;49.866;7.986;2022-08-19T11:03:29;2.90;;;2.77;;
4345;SDS011;2186;49.866;7.986;2022-08-19T11:05:57;3.33;;;1.87;;
4345;SDS011;2186;49.866;7.986;2022-08-19T11:08:24;2.43;;;2.33;;
4345;SDS011;2186;49.866;7.986;2022-08-19T11:10:53;2.43;;;2.30;;
4345;SDS011;2186;49.866;7.986;2022-08-19T11:13:27;7.37;;;2.67;;
4345;SDS011;2186;49.866;7.986;2022-08-19T11:16:02;2.73;;;2.53;;
4345;SDS011;2186;49.866;7.986;2022-08-19T11:18:35;4.43;;;2.87;;
4345;SDS011;2186;49.866;7.986;2022-08-19T11:21:07;2.60;;;2.40;;
4345;SDS011;2186;49.866;7.986;2022-08-19T11:23:37;2.67;;;2.50;;
4345;SDS011;2186;49.866;7.986;2022-08-19T11:26:04;2.77;;;2.57;;
4345;SDS011;2186;49.866;7.986;2022-08-19T11:28:31;4.20;;;3.63;;
4345;SDS011;2186;49.866;7.986;2022-08-19T11:30:58;3.37;;;3.07;;
4345;SDS011;2186;49.866;7.986;2022-08-19T11:33:25;2.33;;;2.20;;
4345;SDS011;2186;49.866;7.986;2022-08-19T11:35:52;4.20;;;2.87;;
4345;SDS011;2186;49.866;7.986;2022-08-19T11:38:19;4.87;;;2.60;;
4345;SDS011;2186;49.866;7.986;2022-08-19T11:40:53;2.20;;;2.00;;
4345;SDS011;2186;49.866;7.986;2022-08-19T11:43:24;2.80;;;2.00;;
4345;SDS011;2186;49.866;7.986;2022-08-19T11:45:53;1.43;;;1.33;;
4345;SDS011;2186;49.866;7.986;2022-08-19T11:48:21;3.20;;;2.50;;
4345;SDS011;2186;49.866;7.986;2022-08-19T11:50:49;2.90;;;1.80;;
4345;SDS011;2186;49.866;7.986;2022-08-19T11:53:16;2.33;;;2.23;;
4345;SDS011;2186;49.866;7.986;2022-08-19T11:55:45;1.97;;;1.87;;
4345;SDS011;2186;49.866;7.986;2022-08-19T11:58:13;1.67;;;1.57;;
4345;SDS011;2186;49.866;7.986;2022-08-19T12:00:44;3.60;;;2.20;;
4345;SDS011;2186;49.866;7.986;2022-08-19T12:03:11;1.97;;;1.87;;
4345;SDS011;2186;49.866;7.986;2022-08-19T12:05:41;19.63;;;2.40;;
4345;SDS011;2186;49.866;7.986;2022-08-19T12:08:08;2.57;;;2.40;;
4345;SDS011;2186;49.866;7.986;2022-08-19T12:10:34;2.50;;;2.40;;
4345;SDS011;2186;49.866;7.986;2022-08-19T12:13:01;2.07;;;1.97;;
4345;SDS011;2186;49.866;7.986;2022-08-19T12:15:28;2.17;;;1.90;;
4345;SDS011;2186;49.866;7.986;2022-08-19T12:18:02;2.20;;;2.00;;
4345;SDS011;2186;49.866;7.986;2022-08-19T12:20:33;5.97;;;2.07;;
4345;SDS011;2186;49.866;7.986;2022-08-19T12:23:02;2.70;;;2.50;;
4345;SDS011;2186;49.866;7.986;2022-08-19T12:25:29;2.10;;;2.00;;
4345;SDS011;2186;49.866;7.986;2022-08-19T12:27:57;2.40;;;2.20;;
4345;SDS011;2186;49.866;7.986;2022-08-19T12:30:24;1.57;;;1.47;;
4345;SDS011;2186;49.866;7.986;2022-08-19T12:32:51;2.90;;;2.70;;
4345;SDS011;2186;49.866;7.986;2022-08-19T12:35:18;1.67;;;1.57;;
4345;SDS011;2186;49.866;7.986;2022-08-19T12:37:47;1.57;;;1.47;;
4345;SDS011;2186;49.866;7.986;2022-08-19T12:40:22;4.87;;;4.20;;
4345;SDS011;2186;49.866;7.986;2022-08-19T12:42:51;3.50;;;2.83;;
4345;SDS011;2186;49.866;7.986;2022-08-19T12:45:18;5.40;;;3.37;;
4345;SDS011;2186;49.866;7.986;2022-08-19T12:47:45;2.30;;;2.20;;
4345;SDS011;2186;49.866;7.986;2022-08-19T12:50:13;2.47;;;2.37;;
4345;SDS011;2186;49.866;7.986;2022-08-19T12:52:39;3.10;;;2.83;;
4345;SDS011;2186;49.866;7.986;2022-08-19T12:55:08;2.53;;;2.30;;
4345;SDS011;2186;49.866;7.986;2022-08-19T12:57:36;1.93;;;1.83;;
4345;SDS011;2186;49.866;7.986;2022-08-19T13:00:14;3.50;;;2.47;;
4345;SDS011;2186;49.866;7.986;2022-08-19T13:02:44;2.60;;;1.97;;
4345;SDS011;2186;49.866;7.986;2022-08-19T13:05:14;3.50;;;3.20;;
4345;SDS011;2186;49.866;7.986;2022-08-19T13:07:42;9.50;;;2.03;;
4345;SDS011;2186;49.866;7.986;2022-08-19T13:10:13;1.80;;;1.70;;
4345;SDS011;2186;49.866;7.986;2022-08-19T13:12:42;2.97;;;2.77;;
4345;SDS011;2186;49.866;7.986;2022-08-19T13:15:10;3.47;;;3.23;;
4345;SDS011;2186;49.866;7.986;2022-08-19T13:17:40;2.80;;;2.60;;
4345;SDS011;2186;49.866;7.986;2022-08-19T13:20:07;2.40;;;2.20;;
4345;SDS011;2186;49.866;7.986;2022-08-19T13:22:35;5.43;;;2.23;;
4345;SDS011;2186;49.866;7.986;2022-08-19T13:25:04;2.43;;;2.23;;
4345;SDS011;2186;49.866;7.986;2022-08-19T13:27:32;11.73;;;2.77;;
4345;SDS011;2186;49.866;7.986;2022-08-19T13:29:58;3.10;;;2.90;;
4345;SDS011;2186;49.866;7.986;2022-08-19T13:32:44;3.73;;;2.00;;
4345;SDS011;2186;49.866;7.986;2022-08-19T13:35:28;2.80;;;2.60;;
4345;SDS011;2186;49.866;7.986;2022-08-19T13:37:55;2.30;;;2.20;;
4345;SDS011;2186;49.866;7.986;2022-08-19T13:40:23;2.93;;;2.43;;
4345;SDS011;2186;49.866;7.986;2022-08-19T13:42:53;4.70;;;2.80;;
4345;SDS011;2186;49.866;7.986;2022-08-19T13:45:22;2.70;;;2.60;;
4345;SDS011;2186;49.866;7.986;2022-08-19T13:47:51;3.20;;;3.00;;
4345;SDS011;2186;49.866;7.986;2022-08-19T13:50:26;2.23;;;2.03;;
4345;SDS011;2186;49.866;7.986;2022-08-19T13:52:55;3.07;;;2.97;;
4345;SDS011;2186;49.866;7.986;2022-08-19T13:55:22;2.60;;;2.40;;
4345;SDS011;2186;49.866;7.986;2022-08-19T13:57:54;3.10;;;2.90;;
4345;SDS011;2186;49.866;7.986;2022-08-19T14:00:23;2.60;;;2.50;;
4345;SDS011;2186;49.866;7.986;2022-08-19T14:02:53;2.73;;;2.63;;
4345;SDS011;2186;49.866;7.986;2022-08-19T14:05:22;4.83;;;2.57;;
4345;SDS011;2186;49.866;7.986;2022-08-19T14:07:50;8.50;;;3.47;;
4345;SDS011;2186;49.866;7.986;2022-08-19T14:10:16;2.33;;;2.13;;
4345;SDS011;2186;49.866;7.986;2022-08-19T14:12:44;7.93;;;3.10;;
4345;SDS011;2186;49.866;7.986;2022-08-19T14:15:11;2.63;;;2.53;;
4345;SDS011;2186;49.866;7.986;2022-08-19T14:17:40;7.07;;;3.50;;
4345;SDS011;2186;49.866;7.986;2022-08-19T14:20:08;25.90;;;3.40;;
4345;SDS011;2186;49.866;7.986;2022-08-19T14:22:43;2.80;;;2.60;;
4345;SDS011;2186;49.866;7.986;2022-08-19T14:25:11;3.90;;;3.70;;
4345;SDS011;2186;49.866;7.986;2022-08-19T14:27:40;2.90;;;2.70;;
4345;SDS011;2186;49.866;7.986;2022-08-19T14:30:09;3.13;;;2.90;;
4345;SDS011;2186;49.866;7.986;2022-08-19T14:32:37;2.30;;;2.20;;
4345;SDS011;2186;49.866;7.986;2022-08-19T14:35:04;2.60;;;2.50;;
4345;SDS011;2186;49.866;7.986;2022-08-19T14:37:32;3.47;;;3.10;;
4345;SDS011;2186;49.866;7.986;2022-08-19T14:40:11;3.80;;;3.50;;
4345;SDS011;2186;49.866;7.986;2022-08-19T14:42:45;6.80;;;3.57;;
4345;SDS011;2186;49.866;7.986;2022-08-19T14:45:12;3.43;;;3.23;;
4345;SDS011;2186;49.866;7.986;2022-08-19T14:47:39;3.77;;;2.73;;
4345;SDS011;2186;49.866;7.986;2022-08-19T14:50:09;3.13;;;2.83;;
4345;SDS011;2186;49.866;7.986;2022-08-19T14:52:43;2.87;;;2.63;;
4345;SDS011;2186;49.866;7.986;2022-08-19T14:55:17;4.13;;;3.57;;
4345;SDS011;2186;49.866;7.986;2022-08-19T14:57:43;10.10;;;2.90;;
4345;SDS011;2186;49.866;7.986;2022-08-19T15:00:11;2.70;;;2.60;;
4345;SDS011;2186;49.866;7.986;2022-08-19T15:02:41;6.97;;;4.07;;
4345;SDS011;2186;49.866;7.986;2022-08-19T15:05:10;3.63;;;3.43;;
4345;SDS011;2186;49.866;7.986;2022-08-19T15:07:37;2.80;;;2.70;;
4345;SDS011;2186;49.866;7.986;2022-08-19T15:10:05;3.10;;;2.90;;
4345;SDS011;2186;49.866;7.986;2022-08-19T15:12:36;5.03;;;3.20;;
4345;SDS011;2186;49.866;7.986;2022-08-19T15:15:10;3.50;;;3.33;;
4345;SDS011;2186;49.866;7.986;2022-08-19T15:17:43;2.70;;;2.50;;
4345;SDS011;2186;49.866;7.986;2022-08-19T15:20:13;3.27;;;3.07;;
4345;SDS011;2186;49.866;7.986;2022-08-19T15:22:41;3.87;;;3.50;;
4345;SDS011;2186;49.866;7.986;2022-08-19T15:25:10;3.37;;;3.17;;
4345;SDS011;2186;49.866;7.986;2022-08-19T15:27:39;8.33;;;2.83;;
4345;SDS011;2186;49.866;7.986;2022-08-19T15:30:07;27.83;;;2.93;;
4345;SDS011;2186;49.866;7.986;2022-08-19T15:32:34;4.80;;;2.33;;
4345;SDS011;2186;49.866;7.986;2022-08-19T15:35:02;3.27;;;3.10;;
4345;SDS011;2186;49.866;7.986;2022-08-19T15:37:31;3.30;;;3.10;;
4345;SDS011;2186;49.866;7.986;2022-08-19T15:40:02;2.00;;;1.90;;